• Join FlightAware (Why Join?)
  • Login
  • US Flag 
01:56AM EST


 

Airport Tracker/Info


-or-


 

Live Flight TrackerFlight Track Log ✈ UCA4838 ✈ 22-Jun-2013 ✈ KROC - KEWR

Flight Track Log - Related Links

Times and Time Zones

All times are in EDT time to prevent confusion due to time zone crossing. See the UCA4838 flight status page for this flight to view local times or setup timezone preferences in your user account.

Time Position Orientation Groundspeed Altitude Reporting Facility
EDT Latitude Longitude Course Direction KTS MPH feet Rate Location/Type
06:03AM 43.1056 -77.6883 176° South 112 129 1,100  Level Cleveland Center
06:04AM 43.0636 -77.6847 176° South 158 182 2,100 1,117 Climbing Cleveland Center
06:06AM 43.0272 -77.5586 112° Southeast 200 230 4,600 1,293 Climbing Cleveland Center
06:07AM 43.0025 -77.4944 118° Southeast 200 230 6,000 1,400 Climbing Cleveland Center
06:08AM 42.9800 -77.4303 116° Southeast 189 217 7,400 1,300 Climbing Cleveland Center
06:09AM 42.9575 -77.3661 116° Southeast 189 217 8,600 1,250 Climbing Cleveland Center
06:10AM 42.9325 -77.2992 117° Southeast 189 217 9,900 1,100 Climbing Cleveland Center
06:11AM 42.9075 -77.2297 116° Southeast 196 226 10,800 911 Climbing Cleveland Center
06:13AM 42.8678 -77.1142 115° Southeast 206 237 12,300 825 Climbing New York Center
06:14AM 42.8425 -77.0381 114° Southeast 211 243 13,000 344 Climbing New York Center
06:15AM 42.8094 -76.9558 119° Southeast 224 258 13,000  Level New York Center
06:16AM 42.7683 -76.8672 122° Southeast 252 290 13,000  Level New York Center
06:17AM 42.7292 -76.7761 120° Southeast 270 311 13,000  Level New York Center
06:18AM 42.6881 -76.6819 121° Southeast 281 323 13,000  Level New York Center
06:19AM 42.6608 -76.6278 124° Southeast 284 327 13,000  Level Boston Center
06:20AM 42.6203 -76.5375 121° Southeast 289 333 13,000  Level Boston Center
06:21AM 42.5778 -76.4444 122° Southeast 284 327 13,000 -50 Level Boston Center
06:22AM 42.5353 -76.3486 121° Southeast 284 327 12,900 -50 Descending Boston Center
06:23AM 42.4947 -76.2589 121° Southeast 284 327 12,900  Level Boston Center
06:24AM 42.4539 -76.1661 121° Southeast 284 327 12,900  Level Boston Center
06:25AM 42.4069 -76.0678 123° Southeast 290 334 12,900  Level Boston Center
06:26AM 42.3722 -75.9842 119° Southeast 284 327 12,900  Level Boston Center
06:27AM 42.3253 -75.8861 123° Southeast 289 333 12,900  Level Boston Center
06:28AM 42.2825 -75.7825 119° Southeast 289 333 12,900  Level Boston Center
06:29AM 42.2392 -75.6906 122° Southeast 284 327 12,900  Level Boston Center
06:30AM 42.1978 -75.6042 123° Southeast 284 327 12,900  Level Boston Center
06:31AM 42.1544 -75.5125 123° Southeast 284 327 12,900  Level Boston Center
06:32AM 42.1131 -75.4208 121° Southeast 284 327 12,900  Level Boston Center
06:33AM 42.0617 -75.3122 122° Southeast 284 327 12,900 50 Level Boston Center
06:34AM 42.0267 -75.2128 115° Southeast 284 327 13,000 50 Climbing Boston Center
06:35AM 41.9914 -75.1272 119° Southeast 284 327 13,000  Level Boston Center
06:36AM 41.9519 -75.0225 117° Southeast 289 333 13,000 -50 Level Boston Center
06:37AM 41.9142 -74.9400 122° Southeast 289 333 12,900 -550 Descending Boston Center
06:38AM 41.8678 -74.8767 135° Southeast 284 327 11,900 -1,300 Descending Boston Center
06:39AM 41.7947 -74.7792 135° Southeast 299 344 10,300 -1,500 Descending Boston Center
06:40AM 41.7297 -74.6906 134° Southeast 305 351 8,900 -1,300 Descending Boston Center
06:41AM 41.6789 -74.6247 136° Southeast 294 338 7,700 -950 Descending Boston Center
06:42AM 41.6156 -74.5589 142° Southeast 278 320 7,000 -800 Descending Boston Center
06:43AM 41.5508 -74.5678 186° South 241 277 6,100 -500 Descending Boston Center
06:44AM 41.4778 -74.5764 185° South 247 284 6,000 -39 Descending Boston Center
06:45AM 41.3667 -74.6000 189° South 246 283 6,000  Level New York TRACON
06:46AM 41.3167 -74.6333 207° Southwest 243 280 6,000  Level New York TRACON
06:47AM 41.2500 -74.6000 159° South 245 282 6,000 -263 Level New York TRACON
06:48AM 41.2167 -74.5500 132° Southeast 251 289 5,500 -526 Descending New York TRACON
06:49AM 41.1667 -74.4833 135° Southeast 259 298 5,000 -250 Descending New York TRACON
06:50AM 41.1167 -74.4167 135° Southeast 252 290 5,000  Level New York TRACON
06:51AM 41.0667 -74.3500 135° Southeast 241 277 5,000  Level New York TRACON
06:52AM 41.0167 -74.3000 143° Southeast 228 262 5,000  Level New York TRACON
06:53AM 41.0000 -74.2167 105° East 234 269 5,000 -400 Level New York TRACON
06:54AM 40.9833 -74.1333 105° East 233 268 4,200 -756 Descending New York TRACON
06:55AM 40.9333 -74.0833 143° Southeast 223 257 3,500 -626 Descending New York TRACON
06:56AM 40.8833 -74.0667 166° South 218 251 3,000 -421 Descending New York TRACON
06:57AM 40.8333 -74.0833 194° South 218 251 2,700 -650 Descending New York TRACON
06:58AM 40.7833 -74.1167 207° Southwest 178 205 1,700 -893 Descending New York TRACON
06:59AM 40.7333 -74.1333 194° South 140 161 900 -706 Descending New York TRACON
07:00AM 40.7167 -74.1500 217° Southwest 117 135 300 -610 Descending New York TRACON
07:02AM 40.6925 -74.1687 203° Southwest  Level Estimated
07:09AM 40.6925 -74.1687 203° Southwest  Level Estimated
07:10AM 40.6925 -74.1687 203° Southwest  Level Estimated